sensor_id;sensor_type;location;lat;lon;timestamp;temperature;humidity
24103;DHT22;12278;53.058;9.028;2023-07-29T00:03:32;18.70;99.90
24103;DHT22;12278;53.058;9.028;2023-07-29T00:07:32;18.60;99.90
24103;DHT22;12278;53.058;9.028;2023-07-29T00:11:33;18.60;99.90
24103;DHT22;12278;53.058;9.028;2023-07-29T00:15:34;18.60;99.90
24103;DHT22;12278;53.058;9.028;2023-07-29T00:19:34;18.60;99.90
24103;DHT22;12278;53.058;9.028;2023-07-29T00:23:35;18.60;99.90
24103;DHT22;12278;53.058;9.028;2023-07-29T00:27:36;18.40;99.90
24103;DHT22;12278;53.058;9.028;2023-07-29T00:31:36;18.50;99.90
24103;DHT22;12278;53.058;9.028;2023-07-29T00:35:37;18.40;99.90
24103;DHT22;12278;53.058;9.028;2023-07-29T00:39:37;18.50;99.90
24103;DHT22;12278;53.058;9.028;2023-07-29T00:43:38;18.40;99.90
24103;DHT22;12278;53.058;9.028;2023-07-29T00:47:38;18.30;99.90
24103;DHT22;12278;53.058;9.028;2023-07-29T00:51:39;18.30;99.90
24103;DHT22;12278;53.058;9.028;2023-07-29T00:55:40;18.30;99.90
24103;DHT22;12278;53.058;9.028;2023-07-29T00:59:41;18.30;99.90
24103;DHT22;12278;53.058;9.028;2023-07-29T01:03:41;18.10;99.90
24103;DHT22;12278;53.058;9.028;2023-07-29T01:16:34;18.10;99.90
24103;DHT22;12278;53.058;9.028;2023-07-29T01:20:37;18.00;99.90
24103;DHT22;12278;53.058;9.028;2023-07-29T01:24:39;18.00;99.90
24103;DHT22;12278;53.058;9.028;2023-07-29T01:28:39;18.00;99.90
24103;DHT22;12278;53.058;9.028;2023-07-29T01:32:43;17.90;99.90
24103;DHT22;12278;53.058;9.028;2023-07-29T01:36:44;17.90;99.90
24103;DHT22;12278;53.058;9.028;2023-07-29T01:40:46;17.80;99.90
24103;DHT22;12278;53.058;9.028;2023-07-29T01:44:47;17.80;99.90
24103;DHT22;12278;53.058;9.028;2023-07-29T01:48:48;17.70;99.90
24103;DHT22;12278;53.058;9.028;2023-07-29T01:52:48;17.70;99.90
24103;DHT22;12278;53.058;9.028;2023-07-29T01:56:49;17.60;99.90
24103;DHT22;12278;53.058;9.028;2023-07-29T02:00:51;17.60;99.90
24103;DHT22;12278;53.058;9.028;2023-07-29T02:04:51;17.60;99.90
24103;DHT22;12278;53.058;9.028;2023-07-29T02:08:54;17.60;99.90
24103;DHT22;12278;53.058;9.028;2023-07-29T02:12:54;17.60;99.90
24103;DHT22;12278;53.058;9.028;2023-07-29T02:16:55;17.50;99.90
24103;DHT22;12278;53.058;9.028;2023-07-29T02:20:55;17.40;99.90
24103;DHT22;12278;53.058;9.028;2023-07-29T02:24:56;17.40;99.90
24103;DHT22;12278;53.058;9.028;2023-07-29T02:28:56;17.40;99.90
24103;DHT22;12278;53.058;9.028;2023-07-29T02:32:57;17.30;99.90
24103;DHT22;12278;53.058;9.028;2023-07-29T02:36:57;17.30;99.90
24103;DHT22;12278;53.058;9.028;2023-07-29T02:40:58;17.40;99.90
24103;DHT22;12278;53.058;9.028;2023-07-29T02:44:58;17.30;99.90
24103;DHT22;12278;53.058;9.028;2023-07-29T02:49:01;17.30;99.90
24103;DHT22;12278;53.058;9.028;2023-07-29T02:53:02;17.30;99.90
24103;DHT22;12278;53.058;9.028;2023-07-29T02:57:02;17.30;99.90
24103;DHT22;12278;53.058;9.028;2023-07-29T03:01:04;17.10;99.90
24103;DHT22;12278;53.058;9.028;2023-07-29T03:05:05;17.10;99.90
24103;DHT22;12278;53.058;9.028;2023-07-29T03:09:05;17.20;99.90
24103;DHT22;12278;53.058;9.028;2023-07-29T03:13:06;17.20;99.90
24103;DHT22;12278;53.058;9.028;2023-07-29T03:17:06;17.10;99.90
24103;DHT22;12278;53.058;9.028;2023-07-29T03:21:07;17.10;99.90
24103;DHT22;12278;53.058;9.028;2023-07-29T03:25:07;17.10;99.90
24103;DHT22;12278;53.058;9.028;2023-07-29T03:29:08;17.10;99.90
24103;DHT22;12278;53.058;9.028;2023-07-29T03:33:08;17.20;99.90
24103;DHT22;12278;53.058;9.028;2023-07-29T03:37:09;17.20;99.90
24103;DHT22;12278;53.058;9.028;2023-07-29T03:41:10;17.10;99.90
24103;DHT22;12278;53.058;9.028;2023-07-29T03:45:11;17.10;99.90
24103;DHT22;12278;53.058;9.028;2023-07-29T03:49:12;17.20;99.90
24103;DHT22;12278;53.058;9.028;2023-07-29T03:53:12;17.20;99.90
24103;DHT22;12278;53.058;9.028;2023-07-29T03:57:13;17.20;99.90
24103;DHT22;12278;53.058;9.028;2023-07-29T04:01:13;17.20;99.90
24103;DHT22;12278;53.058;9.028;2023-07-29T04:05:14;17.30;99.90
24103;DHT22;12278;53.058;9.028;2023-07-29T04:09:14;17.30;99.90
24103;DHT22;12278;53.058;9.028;2023-07-29T04:13:15;17.40;99.90
24103;DHT22;12278;53.058;9.028;2023-07-29T04:17:15;17.40;99.90
24103;DHT22;12278;53.058;9.028;2023-07-29T04:21:16;17.30;99.90
24103;DHT22;12278;53.058;9.028;2023-07-29T04:25:16;17.50;99.90
24103;DHT22;12278;53.058;9.028;2023-07-29T04:29:17;17.50;99.90
24103;DHT22;12278;53.058;9.028;2023-07-29T04:33:17;17.60;99.90
24103;DHT22;12278;53.058;9.028;2023-07-29T04:37:18;17.60;99.90
24103;DHT22;12278;53.058;9.028;2023-07-29T04:41:19;17.50;99.90
24103;DHT22;12278;53.058;9.028;2023-07-29T04:45:19;17.50;99.90
24103;DHT22;12278;53.058;9.028;2023-07-29T04:49:20;17.60;99.90
24103;DHT22;12278;53.058;9.028;2023-07-29T04:53:27;17.60;99.90
24103;DHT22;12278;53.058;9.028;2023-07-29T04:57:27;17.60;99.90
24103;DHT22;12278;53.058;9.028;2023-07-29T05:01:28;17.60;99.90
24103;DHT22;12278;53.058;9.028;2023-07-29T05:05:28;17.70;99.90
24103;DHT22;12278;53.058;9.028;2023-07-29T05:09:29;17.70;99.90
24103;DHT22;12278;53.058;9.028;2023-07-29T05:13:29;17.80;99.90
24103;DHT22;12278;53.058;9.028;2023-07-29T05:17:30;17.80;99.90
24103;DHT22;12278;53.058;9.028;2023-07-29T05:21:30;17.90;99.90
24103;DHT22;12278;53.058;9.028;2023-07-29T05:25:31;18.00;99.90
24103;DHT22;12278;53.058;9.028;2023-07-29T05:29:32;18.20;99.90
24103;DHT22;12278;53.058;9.028;2023-07-29T05:33:32;18.30;99.90
24103;DHT22;12278;53.058;9.028;2023-07-29T05:37:33;18.40;99.90
24103;DHT22;12278;53.058;9.028;2023-07-29T05:41:33;18.50;99.90
24103;DHT22;12278;53.058;9.028;2023-07-29T05:45:34;18.60;99.90
24103;DHT22;12278;53.058;9.028;2023-07-29T05:49:34;18.60;99.90
24103;DHT22;12278;53.058;9.028;2023-07-29T05:53:35;18.60;99.90
24103;DHT22;12278;53.058;9.028;2023-07-29T05:57:35;18.60;99.90
24103;DHT22;12278;53.058;9.028;2023-07-29T06:01:36;18.60;99.90
24103;DHT22;12278;53.058;9.028;2023-07-29T06:05:36;18.60;99.90
24103;DHT22;12278;53.058;9.028;2023-07-29T06:09:37;18.50;99.90
24103;DHT22;12278;53.058;9.028;2023-07-29T06:13:38;18.60;99.90
24103;DHT22;12278;53.058;9.028;2023-07-29T06:17:38;18.60;99.90
24103;DHT22;12278;53.058;9.028;2023-07-29T06:21:39;18.60;99.90
24103;DHT22;12278;53.058;9.028;2023-07-29T06:25:39;18.60;99.90
24103;DHT22;12278;53.058;9.028;2023-07-29T06:29:40;18.60;99.90
24103;DHT22;12278;53.058;9.028;2023-07-29T06:33:41;18.60;99.90
24103;DHT22;12278;53.058;9.028;2023-07-29T06:37:41;18.60;99.90
24103;DHT22;12278;53.058;9.028;2023-07-29T06:41:42;18.70;99.90
24103;DHT22;12278;53.058;9.028;2023-07-29T06:45:42;18.70;99.90
24103;DHT22;12278;53.058;9.028;2023-07-29T06:49:43;18.70;99.90
24103;DHT22;12278;53.058;9.028;2023-07-29T06:53:43;18.90;99.90
24103;DHT22;12278;53.058;9.028;2023-07-29T06:57:44;19.00;99.90
24103;DHT22;12278;53.058;9.028;2023-07-29T07:01:44;19.20;99.90
24103;DHT22;12278;53.058;9.028;2023-07-29T07:05:45;19.20;99.90
24103;DHT22;12278;53.058;9.028;2023-07-29T07:09:45;19.30;99.90
24103;DHT22;12278;53.058;9.028;2023-07-29T07:13:46;19.40;99.90
24103;DHT22;12278;53.058;9.028;2023-07-29T07:17:46;19.40;99.90
24103;DHT22;12278;53.058;9.028;2023-07-29T07:21:47;19.40;99.90
24103;DHT22;12278;53.058;9.028;2023-07-29T07:25:47;19.60;99.90
24103;DHT22;12278;53.058;9.028;2023-07-29T07:29:48;19.60;99.90
24103;DHT22;12278;53.058;9.028;2023-07-29T07:33:48;19.60;99.90
24103;DHT22;12278;53.058;9.028;2023-07-29T07:37:49;19.60;99.90
24103;DHT22;12278;53.058;9.028;2023-07-29T07:41:49;19.60;99.90
24103;DHT22;12278;53.058;9.028;2023-07-29T07:45:51;19.70;99.90
24103;DHT22;12278;53.058;9.028;2023-07-29T08:20:12;19.90;99.90
24103;DHT22;12278;53.058;9.028;2023-07-29T08:24:20;20.00;99.90
24103;DHT22;12278;53.058;9.028;2023-07-29T08:28:20;20.20;99.90
24103;DHT22;12278;53.058;9.028;2023-07-29T08:32:21;20.30;99.90
24103;DHT22;12278;53.058;9.028;2023-07-29T08:36:22;20.70;99.90
24103;DHT22;12278;53.058;9.028;2023-07-29T08:40:23;21.10;99.90
24103;DHT22;12278;53.058;9.028;2023-07-29T08:44:26;21.30;99.90
24103;DHT22;12278;53.058;9.028;2023-07-29T08:48:36;21.50;99.90
24103;DHT22;12278;53.058;9.028;2023-07-29T08:52:39;21.30;99.90
24103;DHT22;12278;53.058;9.028;2023-07-29T08:56:41;21.10;99.90
24103;DHT22;12278;53.058;9.028;2023-07-29T09:00:42;21.40;99.90
24103;DHT22;12278;53.058;9.028;2023-07-29T09:04:43;21.20;99.90
24103;DHT22;12278;53.058;9.028;2023-07-29T09:08:44;21.00;99.90
24103;DHT22;12278;53.058;9.028;2023-07-29T09:12:45;21.00;99.90
24103;DHT22;12278;53.058;9.028;2023-07-29T09:16:45;21.40;99.90
24103;DHT22;12278;53.058;9.028;2023-07-29T09:20:47;21.60;99.90
24103;DHT22;12278;53.058;9.028;2023-07-29T09:24:48;22.00;99.90
24103;DHT22;12278;53.058;9.028;2023-07-29T09:28:51;21.90;99.90
24103;DHT22;12278;53.058;9.028;2023-07-29T09:32:58;22.10;99.90
24103;DHT22;12278;53.058;9.028;2023-07-29T09:36:59;22.00;99.90
24103;DHT22;12278;53.058;9.028;2023-07-29T09:41:01;21.90;99.90
24103;DHT22;12278;53.058;9.028;2023-07-29T09:45:01;21.40;99.90
24103;DHT22;12278;53.058;9.028;2023-07-29T09:49:03;21.30;99.90
24103;DHT22;12278;53.058;9.028;2023-07-29T09:53:04;21.30;99.90
24103;DHT22;12278;53.058;9.028;2023-07-29T09:57:07;21.50;99.90
24103;DHT22;12278;53.058;9.028;2023-07-29T10:01:08;22.10;99.90
24103;DHT22;12278;53.058;9.028;2023-07-29T10:05:12;22.20;99.90
24103;DHT22;12278;53.058;9.028;2023-07-29T10:09:13;22.30;99.90
24103;DHT22;12278;53.058;9.028;2023-07-29T10:13:14;23.10;99.90
24103;DHT22;12278;53.058;9.028;2023-07-29T10:17:15;23.40;99.90
24103;DHT22;12278;53.058;9.028;2023-07-29T10:21:16;23.70;99.90
24103;DHT22;12278;53.058;9.028;2023-07-29T10:25:17;24.00;99.90
24103;DHT22;12278;53.058;9.028;2023-07-29T10:29:19;24.20;99.90
24103;DHT22;12278;53.058;9.028;2023-07-29T10:33:20;23.50;99.90
24103;DHT22;12278;53.058;9.028;2023-07-29T10:37:20;23.70;99.90
24103;DHT22;12278;53.058;9.028;2023-07-29T10:41:22;23.70;99.90
24103;DHT22;12278;53.058;9.028;2023-07-29T10:45:23;23.50;99.90
24103;DHT22;12278;53.058;9.028;2023-07-29T10:49:24;23.40;99.90
24103;DHT22;12278;53.058;9.028;2023-07-29T10:53:29;22.90;99.90
24103;DHT22;12278;53.058;9.028;2023-07-29T10:57:36;24.00;99.90
24103;DHT22;12278;53.058;9.028;2023-07-29T11:01:39;23.90;99.90
24103;DHT22;12278;53.058;9.028;2023-07-29T11:05:52;24.20;99.90
24103;DHT22;12278;53.058;9.028;2023-07-29T11:09:56;24.20;99.90
24103;DHT22;12278;53.058;9.028;2023-07-29T11:14:00;23.30;99.90
24103;DHT22;12278;53.058;9.028;2023-07-29T11:18:02;22.90;99.90
24103;DHT22;12278;53.058;9.028;2023-07-29T11:22:03;23.90;99.90
24103;DHT22;12278;53.058;9.028;2023-07-29T11:26:04;24.50;99.90
24103;DHT22;12278;53.058;9.028;2023-07-29T11:30:07;24.00;99.90
24103;DHT22;12278;53.058;9.028;2023-07-29T11:34:11;23.80;99.90
24103;DHT22;12278;53.058;9.028;2023-07-29T11:38:17;24.10;99.90
24103;DHT22;12278;53.058;9.028;2023-07-29T11:42:18;24.00;99.90
24103;DHT22;12278;53.058;9.028;2023-07-29T11:46:23;23.90;99.90
24103;DHT22;12278;53.058;9.028;2023-07-29T11:50:24;23.00;99.90
24103;DHT22;12278;53.058;9.028;2023-07-29T11:54:25;22.90;99.90
24103;DHT22;12278;53.058;9.028;2023-07-29T11:58:26;22.70;99.90
24103;DHT22;12278;53.058;9.028;2023-07-29T12:02:27;22.80;99.90
24103;DHT22;12278;53.058;9.028;2023-07-29T12:06:28;22.70;99.90
24103;DHT22;12278;53.058;9.028;2023-07-29T12:10:31;22.90;99.90
24103;DHT22;12278;53.058;9.028;2023-07-29T12:14:33;23.30;99.90
24103;DHT22;12278;53.058;9.028;2023-07-29T12:18:36;23.70;99.90
24103;DHT22;12278;53.058;9.028;2023-07-29T12:22:36;23.20;99.90
24103;DHT22;12278;53.058;9.028;2023-07-29T12:26:37;23.00;99.90
24103;DHT22;12278;53.058;9.028;2023-07-29T12:30:41;23.70;99.90
24103;DHT22;12278;53.058;9.028;2023-07-29T12:34:42;24.20;99.90
24103;DHT22;12278;53.058;9.028;2023-07-29T12:38:43;24.90;99.90
24103;DHT22;12278;53.058;9.028;2023-07-29T12:42:45;25.50;99.90
24103;DHT22;12278;53.058;9.028;2023-07-29T12:46:46;25.90;99.90
24103;DHT22;12278;53.058;9.028;2023-07-29T12:50:47;25.40;99.90
24103;DHT22;12278;53.058;9.028;2023-07-29T12:54:47;25.70;99.90
24103;DHT22;12278;53.058;9.028;2023-07-29T12:58:48;25.50;99.90
24103;DHT22;12278;53.058;9.028;2023-07-29T13:02:49;25.20;99.90
24103;DHT22;12278;53.058;9.028;2023-07-29T13:06:49;25.10;99.90
24103;DHT22;12278;53.058;9.028;2023-07-29T13:10:50;25.50;99.90
24103;DHT22;12278;53.058;9.028;2023-07-29T13:14:51;25.80;99.90
24103;DHT22;12278;53.058;9.028;2023-07-29T13:18:52;26.30;99.90
24103;DHT22;12278;53.058;9.028;2023-07-29T13:22:54;26.50;99.90
24103;DHT22;12278;53.058;9.028;2023-07-29T13:26:55;26.90;99.90
24103;DHT22;12278;53.058;9.028;2023-07-29T13:30:57;27.30;99.90
24103;DHT22;12278;53.058;9.028;2023-07-29T13:34:58;27.80;99.70
24103;DHT22;12278;53.058;9.028;2023-07-29T13:38:59;25.90;99.90
24103;DHT22;12278;53.058;9.028;2023-07-29T13:43:00;26.50;99.90
24103;DHT22;12278;53.058;9.028;2023-07-29T13:47:01;26.20;99.90
24103;DHT22;12278;53.058;9.028;2023-07-29T13:51:02;27.90;99.30
24103;DHT22;12278;53.058;9.028;2023-07-29T13:55:04;27.50;99.90
24103;DHT22;12278;53.058;9.028;2023-07-29T13:59:05;27.20;99.90
24103;DHT22;12278;53.058;9.028;2023-07-29T14:03:05;26.00;99.90
24103;DHT22;12278;53.058;9.028;2023-07-29T14:07:06;26.30;99.90
24103;DHT22;12278;53.058;9.028;2023-07-29T14:11:07;25.10;99.90
24103;DHT22;12278;53.058;9.028;2023-07-29T14:15:08;24.90;99.90
24103;DHT22;12278;53.058;9.028;2023-07-29T14:19:09;26.90;99.90
24103;DHT22;12278;53.058;9.028;2023-07-29T14:23:09;27.60;99.90
24103;DHT22;12278;53.058;9.028;2023-07-29T14:27:10;28.70;99.00
24103;DHT22;12278;53.058;9.028;2023-07-29T14:31:11;28.90;99.40
24103;DHT22;12278;53.058;9.028;2023-07-29T14:35:11;26.80;99.90
24103;DHT22;12278;53.058;9.028;2023-07-29T14:39:12;27.60;99.90
24103;DHT22;12278;53.058;9.028;2023-07-29T14:43:13;26.60;99.90
24103;DHT22;12278;53.058;9.028;2023-07-29T14:47:14;26.80;99.90
24103;DHT22;12278;53.058;9.028;2023-07-29T14:51:15;27.30;99.90
24103;DHT22;12278;53.058;9.028;2023-07-29T14:55:15;26.90;99.90
24103;DHT22;12278;53.058;9.028;2023-07-29T14:59:16;25.80;99.90
24103;DHT22;12278;53.058;9.028;2023-07-29T15:03:17;24.80;99.90
24103;DHT22;12278;53.058;9.028;2023-07-29T15:07:18;25.20;99.90
24103;DHT22;12278;53.058;9.028;2023-07-29T15:11:18;26.60;99.90
24103;DHT22;12278;53.058;9.028;2023-07-29T15:15:19;27.50;99.60
24103;DHT22;12278;53.058;9.028;2023-07-29T15:19:20;27.50;99.90
24103;DHT22;12278;53.058;9.028;2023-07-29T15:23:20;26.10;99.90
24103;DHT22;12278;53.058;9.028;2023-07-29T15:27:21;24.60;99.90
24103;DHT22;12278;53.058;9.028;2023-07-29T15:31:22;24.00;99.90
24103;DHT22;12278;53.058;9.028;2023-07-29T15:35:23;23.80;99.90
24103;DHT22;12278;53.058;9.028;2023-07-29T15:39:24;23.40;99.90
24103;DHT22;12278;53.058;9.028;2023-07-29T15:43:24;22.80;99.90
24103;DHT22;12278;53.058;9.028;2023-07-29T15:47:25;22.60;99.90
24103;DHT22;12278;53.058;9.028;2023-07-29T15:51:26;22.20;99.90
24103;DHT22;12278;53.058;9.028;2023-07-29T15:55:27;21.90;99.90
24103;DHT22;12278;53.058;9.028;2023-07-29T15:59:27;21.70;99.90
24103;DHT22;12278;53.058;9.028;2023-07-29T16:03:28;21.50;99.90
24103;DHT22;12278;53.058;9.028;2023-07-29T16:07:29;21.60;99.90
24103;DHT22;12278;53.058;9.028;2023-07-29T16:11:29;21.30;99.90
24103;DHT22;12278;53.058;9.028;2023-07-29T16:15:30;21.10;99.90
24103;DHT22;12278;53.058;9.028;2023-07-29T16:19:30;20.80;99.90
24103;DHT22;12278;53.058;9.028;2023-07-29T16:23:33;20.50;99.90
24103;DHT22;12278;53.058;9.028;2023-07-29T16:27:33;20.30;99.90
24103;DHT22;12278;53.058;9.028;2023-07-29T16:31:34;20.00;99.90
24103;DHT22;12278;53.058;9.028;2023-07-29T16:35:35;19.40;99.90
24103;DHT22;12278;53.058;9.028;2023-07-29T16:39:35;18.90;99.90
24103;DHT22;12278;53.058;9.028;2023-07-29T16:43:36;19.00;99.90
24103;DHT22;12278;53.058;9.028;2023-07-29T16:47:36;18.90;99.90
24103;DHT22;12278;53.058;9.028;2023-07-29T16:51:37;18.70;99.90
24103;DHT22;12278;53.058;9.028;2023-07-29T16:55:38;18.60;99.90
24103;DHT22;12278;53.058;9.028;2023-07-29T16:59:38;19.40;99.90
24103;DHT22;12278;53.058;9.028;2023-07-29T17:03:39;19.90;99.90
24103;DHT22;12278;53.058;9.028;2023-07-29T17:07:40;19.60;99.90
24103;DHT22;12278;53.058;9.028;2023-07-29T17:11:40;19.50;99.90
24103;DHT22;12278;53.058;9.028;2023-07-29T17:15:41;19.80;99.90
24103;DHT22;12278;53.058;9.028;2023-07-29T17:19:41;19.80;99.90
24103;DHT22;12278;53.058;9.028;2023-07-29T17:23:42;19.70;99.90
24103;DHT22;12278;53.058;9.028;2023-07-29T17:27:43;19.90;99.90
24103;DHT22;12278;53.058;9.028;2023-07-29T17:31:43;19.80;99.90
24103;DHT22;12278;53.058;9.028;2023-07-29T17:35:45;19.60;99.90
24103;DHT22;12278;53.058;9.028;2023-07-29T17:39:46;19.20;99.90
24103;DHT22;12278;53.058;9.028;2023-07-29T17:43:47;19.00;99.90
24103;DHT22;12278;53.058;9.028;2023-07-29T17:47:50;19.10;99.90
24103;DHT22;12278;53.058;9.028;2023-07-29T17:51:50;19.10;99.90
24103;DHT22;12278;53.058;9.028;2023-07-29T17:55:51;19.20;99.90
24103;DHT22;12278;53.058;9.028;2023-07-29T17:59:52;19.10;99.90
24103;DHT22;12278;53.058;9.028;2023-07-29T18:03:52;19.20;99.90
24103;DHT22;12278;53.058;9.028;2023-07-29T18:07:53;19.30;99.90
24103;DHT22;12278;53.058;9.028;2023-07-29T18:11:54;19.30;99.90
24103;DHT22;12278;53.058;9.028;2023-07-29T18:15:55;19.50;99.90
24103;DHT22;12278;53.058;9.028;2023-07-29T18:19:58;19.80;99.90
24103;DHT22;12278;53.058;9.028;2023-07-29T18:23:59;19.90;99.90
24103;DHT22;12278;53.058;9.028;2023-07-29T18:28:00;20.10;99.90
24103;DHT22;12278;53.058;9.028;2023-07-29T18:32:01;20.20;99.90
24103;DHT22;12278;53.058;9.028;2023-07-29T18:36:03;20.20;99.90
24103;DHT22;12278;53.058;9.028;2023-07-29T18:40:04;20.10;99.90
24103;DHT22;12278;53.058;9.028;2023-07-29T18:44:05;19.90;99.90
24103;DHT22;12278;53.058;9.028;2023-07-29T18:48:06;19.70;99.90
24103;DHT22;12278;53.058;9.028;2023-07-29T18:52:07;19.60;99.90
24103;DHT22;12278;53.058;9.028;2023-07-29T18:56:08;19.20;99.90
24103;DHT22;12278;53.058;9.028;2023-07-29T19:00:08;19.00;99.90
24103;DHT22;12278;53.058;9.028;2023-07-29T19:04:09;18.90;99.90
24103;DHT22;12278;53.058;9.028;2023-07-29T19:08:10;19.00;99.90
24103;DHT22;12278;53.058;9.028;2023-07-29T19:12:11;18.90;99.90
24103;DHT22;12278;53.058;9.028;2023-07-29T19:16:15;18.90;99.90
24103;DHT22;12278;53.058;9.028;2023-07-29T19:20:20;18.90;99.90
24103;DHT22;12278;53.058;9.028;2023-07-29T19:24:20;18.90;99.90
24103;DHT22;12278;53.058;9.028;2023-07-29T19:28:21;18.60;99.90
24103;DHT22;12278;53.058;9.028;2023-07-29T19:32:22;18.70;99.90
24103;DHT22;12278;53.058;9.028;2023-07-29T19:36:23;18.70;99.90
24103;DHT22;12278;53.058;9.028;2023-07-29T19:40:24;18.50;99.90
24103;DHT22;12278;53.058;9.028;2023-07-29T19:44:24;18.50;99.90
24103;DHT22;12278;53.058;9.028;2023-07-29T19:48:26;18.50;99.90
24103;DHT22;12278;53.058;9.028;2023-07-29T19:52:27;18.50;99.90
24103;DHT22;12278;53.058;9.028;2023-07-29T19:56:27;18.40;99.90
24103;DHT22;12278;53.058;9.028;2023-07-29T20:00:28;18.50;99.90
24103;DHT22;12278;53.058;9.028;2023-07-29T20:04:29;18.40;99.90
24103;DHT22;12278;53.058;9.028;2023-07-29T20:08:30;18.30;99.90
24103;DHT22;12278;53.058;9.028;2023-07-29T20:12:30;18.30;99.90
24103;DHT22;12278;53.058;9.028;2023-07-29T20:16:31;18.30;99.90
24103;DHT22;12278;53.058;9.028;2023-07-29T20:20:33;18.20;99.90
24103;DHT22;12278;53.058;9.028;2023-07-29T20:24:34;18.00;99.90
24103;DHT22;12278;53.058;9.028;2023-07-29T20:28:34;18.00;99.90
24103;DHT22;12278;53.058;9.028;2023-07-29T20:32:35;17.90;99.90
24103;DHT22;12278;53.058;9.028;2023-07-29T20:36:37;17.90;99.90
24103;DHT22;12278;53.058;9.028;2023-07-29T20:40:37;17.90;99.90
24103;DHT22;12278;53.058;9.028;2023-07-29T20:44:38;17.90;99.90
24103;DHT22;12278;53.058;9.028;2023-07-29T20:48:39;18.00;99.90
24103;DHT22;12278;53.058;9.028;2023-07-29T20:52:40;18.00;99.90
24103;DHT22;12278;53.058;9.028;2023-07-29T20:56:40;17.90;99.90
24103;DHT22;12278;53.058;9.028;2023-07-29T21:00:41;18.00;99.90
24103;DHT22;12278;53.058;9.028;2023-07-29T21:04:42;17.90;99.90
24103;DHT22;12278;53.058;9.028;2023-07-29T21:08:43;17.80;99.90
24103;DHT22;12278;53.058;9.028;2023-07-29T21:12:43;17.80;99.90
24103;DHT22;12278;53.058;9.028;2023-07-29T21:16:44;17.70;99.90
24103;DHT22;12278;53.058;9.028;2023-07-29T21:20:45;17.60;99.90
24103;DHT22;12278;53.058;9.028;2023-07-29T21:24:45;17.50;99.90
24103;DHT22;12278;53.058;9.028;2023-07-29T21:28:46;17.50;99.90
24103;DHT22;12278;53.058;9.028;2023-07-29T21:32:47;17.40;99.90
24103;DHT22;12278;53.058;9.028;2023-07-29T21:36:47;17.40;99.90
24103;DHT22;12278;53.058;9.028;2023-07-29T21:40:49;17.40;99.90
24103;DHT22;12278;53.058;9.028;2023-07-29T21:44:50;17.50;99.90
24103;DHT22;12278;53.058;9.028;2023-07-29T21:48:50;17.50;99.90
24103;DHT22;12278;53.058;9.028;2023-07-29T21:52:51;17.50;99.90
24103;DHT22;12278;53.058;9.028;2023-07-29T21:56:52;17.50;99.90
24103;DHT22;12278;53.058;9.028;2023-07-29T22:00:53;17.50;99.90
24103;DHT22;12278;53.058;9.028;2023-07-29T22:04:54;17.50;99.90
24103;DHT22;12278;53.058;9.028;2023-07-29T22:08:54;17.60;99.90
24103;DHT22;12278;53.058;9.028;2023-07-29T22:12:55;17.50;99.90
24103;DHT22;12278;53.058;9.028;2023-07-29T22:16:56;17.60;99.90
24103;DHT22;12278;53.058;9.028;2023-07-29T22:20:58;17.60;99.90
24103;DHT22;12278;53.058;9.028;2023-07-29T22:24:58;17.60;99.90
24103;DHT22;12278;53.058;9.028;2023-07-29T22:28:59;17.60;99.90
24103;DHT22;12278;53.058;9.028;2023-07-29T22:33:01;17.50;99.90
24103;DHT22;12278;53.058;9.028;2023-07-29T22:37:02;17.50;99.90
24103;DHT22;12278;53.058;9.028;2023-07-29T22:41:02;17.50;99.90
24103;DHT22;12278;53.058;9.028;2023-07-29T22:45:03;17.50;99.90
24103;DHT22;12278;53.058;9.028;2023-07-29T22:49:04;17.50;99.90
24103;DHT22;12278;53.058;9.028;2023-07-29T22:53:06;17.40;99.90
24103;DHT22;12278;53.058;9.028;2023-07-29T22:57:07;17.40;99.90
24103;DHT22;12278;53.058;9.028;2023-07-29T23:01:08;17.40;99.90
24103;DHT22;12278;53.058;9.028;2023-07-29T23:05:08;17.20;99.90
24103;DHT22;12278;53.058;9.028;2023-07-29T23:09:09;17.30;99.90
24103;DHT22;12278;53.058;9.028;2023-07-29T23:13:09;17.30;99.90
24103;DHT22;12278;53.058;9.028;2023-07-29T23:17:10;17.30;99.90
24103;DHT22;12278;53.058;9.028;2023-07-29T23:21:11;17.40;99.90
24103;DHT22;12278;53.058;9.028;2023-07-29T23:25:12;17.40;99.90
24103;DHT22;12278;53.058;9.028;2023-07-29T23:29:12;17.30;99.90
24103;DHT22;12278;53.058;9.028;2023-07-29T23:33:13;17.40;99.90
24103;DHT22;12278;53.058;9.028;2023-07-29T23:37:14;17.40;99.90
24103;DHT22;12278;53.058;9.028;2023-07-29T23:41:15;17.30;99.90
24103;DHT22;12278;53.058;9.028;2023-07-29T23:45:15;17.40;99.90
24103;DHT22;12278;53.058;9.028;2023-07-29T23:49:16;17.30;99.90
24103;DHT22;12278;53.058;9.028;2023-07-29T23:53:17;17.20;99.90
24103;DHT22;12278;53.058;9.028;2023-07-29T23:57:17;17.20;99.90
